createdAt,value
2022-11-05T00:00:37.433Z,97990.80
2022-11-05T00:03:23.150Z,97992.20
2022-11-05T00:06:12.345Z,97992.60
2022-11-05T00:08:59.119Z,97983.60
2022-11-05T00:11:45.627Z,97979.20
2022-11-05T00:14:31.421Z,97992.00
2022-11-05T00:16:57.851Z,97988.00
2022-11-05T00:19:24.218Z,97996.20
2022-11-05T00:22:09.036Z,97991.60
2022-11-05T00:24:53.901Z,97999.00
2022-11-05T00:27:20.331Z,97999.80
2022-11-05T00:29:46.772Z,98004.20
2022-11-05T00:32:13.161Z,98005.40
2022-11-05T00:34:39.817Z,98005.60
2022-11-05T00:37:06.271Z,98002.20
2022-11-05T00:39:32.664Z,98009.00
2022-11-05T00:42:19.363Z,98005.00
2022-11-05T00:45:03.713Z,98009.00
2022-11-05T00:47:51.432Z,98006.40
2022-11-05T00:50:21.121Z,98011.20
2022-11-05T00:52:57.164Z,98021.80
2022-11-05T00:55:33.478Z,98015.60
2022-11-05T00:58:03.420Z,98008.20
2022-11-05T01:00:32.321Z,97999.80
2022-11-05T01:03:06.148Z,97998.60
2022-11-05T01:05:37.845Z,97998.40
2022-11-05T01:08:04.352Z,97998.60
2022-11-05T01:10:31.834Z,98001.60
2022-11-05T01:12:59.080Z,98008.80
2022-11-05T01:15:25.625Z,98004.00
2022-11-05T01:17:52.438Z,98006.80
2022-11-05T01:20:19.126Z,98006.40
2022-11-05T01:22:45.545Z,98017.40
2022-11-05T01:25:12.061Z,98018.60
2022-11-05T01:27:39.500Z,98016.60
2022-11-05T01:30:08.590Z,98028.20
2022-11-05T01:32:36.650Z,98035.40
2022-11-05T01:35:10.402Z,98032.40
2022-11-05T01:37:36.852Z,98026.00
2022-11-05T01:40:04.926Z,98026.20
2022-11-05T01:42:33.345Z,98028.60
2022-11-05T01:45:12.402Z,98030.00
2022-11-05T01:48:14.065Z,98027.60
2022-11-05T01:51:04.195Z,98031.60
2022-11-05T01:53:39.613Z,98025.40
2022-11-05T01:56:31.591Z,98028.60
2022-11-05T01:59:16.308Z,98022.40
2022-11-05T02:01:42.822Z,98017.40
2022-11-05T02:04:30.176Z,98018.80
2022-11-05T02:06:57.073Z,98029.00
2022-11-05T02:09:36.795Z,98022.80
2022-11-05T02:12:03.903Z,98025.40
2022-11-05T02:14:30.351Z,98026.40
2022-11-05T02:17:08.378Z,98023.40
2022-11-05T02:20:14.751Z,98023.20
2022-11-05T02:23:25.128Z,98022.20
2022-11-05T02:26:31.870Z,98030.60
2022-11-05T02:29:52.636Z,98040.00
2022-11-05T02:33:08.875Z,98053.40
2022-11-05T02:36:02.773Z,98055.20
2022-11-05T02:38:54.225Z,98055.80
2022-11-05T02:41:41.457Z,98053.60
2022-11-05T02:44:38.728Z,98053.80
2022-11-05T02:47:38.058Z,98052.80
2022-11-05T02:50:24.359Z,98054.60
2022-11-05T02:53:02.789Z,98056.80
2022-11-05T02:56:07.639Z,98060.20
2022-11-05T02:58:35.701Z,98056.00
2022-11-05T03:01:06.890Z,98050.60
2022-11-05T03:03:43.016Z,98052.80
2022-11-05T03:06:39.817Z,98052.40
2022-11-05T03:09:34.721Z,98049.40
2022-11-05T03:12:26.018Z,98065.00
2022-11-05T03:15:31.710Z,98065.40
2022-11-05T03:18:21.734Z,98075.80
2022-11-05T03:21:04.557Z,98080.80
2022-11-05T03:23:51.942Z,98080.80
2022-11-05T03:26:28.616Z,98094.00
2022-11-05T03:29:06.685Z,98112.60
2022-11-05T03:31:37.320Z,98108.20
2022-11-05T03:34:08.674Z,98105.00
2022-11-05T03:36:45.888Z,98105.20
2022-11-05T03:39:21.680Z,98108.60
2022-11-05T03:41:53.604Z,98108.60
2022-11-05T03:44:29.216Z,98106.60
2022-11-05T03:47:11.723Z,98104.00
2022-11-05T03:49:48.659Z,98112.60
2022-11-05T03:52:24.331Z,98113.40
2022-11-05T03:54:50.874Z,98128.60
2022-11-05T03:57:26.789Z,98142.20
2022-11-05T03:59:53.244Z,98140.80
2022-11-05T04:02:25.811Z,98138.00
2022-11-05T04:04:54.007Z,98129.80
2022-11-05T04:07:39.325Z,98133.40
2022-11-05T04:10:24.711Z,98138.00
2022-11-05T04:13:09.972Z,98153.60
2022-11-05T04:15:56.599Z,98165.00
2022-11-05T04:18:23.278Z,98166.00
2022-11-05T04:21:08.000Z,98146.60
2022-11-05T04:23:52.928Z,98150.00
2022-11-05T04:26:23.284Z,98165.00
2022-11-05T04:29:10.488Z,98149.20
2022-11-05T04:31:38.260Z,98148.20
2022-11-05T04:34:05.133Z,98162.40
2022-11-05T04:36:32.102Z,98167.20
2022-11-05T04:38:58.532Z,98163.00
2022-11-05T04:41:25.001Z,98171.20
2022-11-05T04:43:51.462Z,98168.40
2022-11-05T04:46:18.691Z,98171.60
2022-11-05T04:48:45.148Z,98179.80
2022-11-05T04:51:11.596Z,98174.20
2022-11-05T04:53:38.058Z,98163.00
2022-11-05T04:56:24.765Z,98178.20
2022-11-05T04:58:52.373Z,98182.00
2022-11-05T05:01:23.081Z,98189.80
2022-11-05T05:03:51.672Z,98185.80
2022-11-05T05:06:18.973Z,98188.60
2022-11-05T05:08:47.889Z,98185.40
2022-11-05T05:11:17.849Z,98190.00
2022-11-05T05:13:44.432Z,98194.20
2022-11-05T05:16:24.916Z,98195.40
2022-11-05T05:18:53.211Z,98199.20
2022-11-05T05:21:41.139Z,98201.20
2022-11-05T05:24:20.982Z,98200.80
2022-11-05T05:26:50.865Z,98198.40
2022-11-05T05:29:18.497Z,98204.60
2022-11-05T05:31:45.065Z,98208.00
2022-11-05T05:34:14.014Z,98207.80
2022-11-05T05:36:41.017Z,98209.20
2022-11-05T05:39:10.763Z,98216.80
2022-11-05T05:41:37.207Z,98222.00
2022-11-05T05:44:06.379Z,98225.20
2022-11-05T05:46:33.172Z,98224.20
2022-11-05T05:48:59.633Z,98222.20
2022-11-05T05:51:26.244Z,98219.40
2022-11-05T05:53:54.831Z,98230.20
2022-11-05T05:56:21.792Z,98229.80
2022-11-05T05:58:48.867Z,98231.00
2022-11-05T06:01:19.604Z,98231.60
2022-11-05T06:03:49.006Z,98234.40
2022-11-05T06:06:21.321Z,98238.00
2022-11-05T06:08:48.921Z,98245.00
2022-11-05T06:11:15.682Z,98254.60
2022-11-05T06:13:42.159Z,98264.40
2022-11-05T06:16:10.114Z,98270.20
2022-11-05T06:18:37.608Z,98272.80
2022-11-05T06:21:08.651Z,98270.40
2022-11-05T06:23:38.946Z,98267.40
2022-11-05T06:26:09.974Z,98265.80
2022-11-05T06:28:36.794Z,98266.60
2022-11-05T06:31:04.292Z,98275.60
2022-11-05T06:33:30.760Z,98277.40
2022-11-05T06:36:02.529Z,98273.60
2022-11-05T06:38:33.578Z,98276.60
2022-11-05T06:41:03.305Z,98276.00
2022-11-05T06:43:32.453Z,98286.20
2022-11-05T06:46:01.936Z,98287.60
2022-11-05T06:48:29.038Z,98294.60
2022-11-05T06:50:55.545Z,98300.20
2022-11-05T06:53:21.914Z,98307.40
2022-11-05T06:55:48.376Z,98308.00
2022-11-05T06:58:15.659Z,98302.00
2022-11-05T07:00:42.464Z,98299.20
2022-11-05T07:03:11.967Z,98301.20
2022-11-05T07:05:51.155Z,98305.40
2022-11-05T07:08:17.699Z,98313.80
2022-11-05T07:10:44.801Z,98317.80
2022-11-05T07:13:11.612Z,98323.40
2022-11-05T07:15:38.615Z,98329.60
2022-11-05T07:18:07.515Z,98338.60
2022-11-05T07:20:34.796Z,98339.80
2022-11-05T07:23:04.481Z,98348.80
2022-11-05T07:25:33.337Z,98355.20
2022-11-05T07:28:00.781Z,98371.00
2022-11-05T07:30:28.221Z,98383.20
2022-11-05T07:32:55.117Z,98382.40
2022-11-05T07:35:22.202Z,98385.40
2022-11-05T07:37:51.228Z,98383.20
2022-11-05T07:40:19.375Z,98385.00
2022-11-05T07:42:55.951Z,98394.20
2022-11-05T07:45:23.569Z,98402.00
2022-11-05T07:47:54.544Z,98404.40
2022-11-05T07:50:23.991Z,98406.00
2022-11-05T07:52:51.189Z,98406.60
2022-11-05T07:55:20.405Z,98405.20
2022-11-05T07:57:50.857Z,98411.20
2022-11-05T08:00:21.053Z,98407.40
2022-11-05T08:03:05.589Z,98409.20
2022-11-05T08:05:39.096Z,98399.00
2022-11-05T08:08:07.901Z,98399.20
2022-11-05T08:10:35.291Z,98404.00
2022-11-05T08:13:02.864Z,98408.40
2022-11-05T08:15:29.415Z,98403.00
2022-11-05T08:18:07.908Z,98406.80
2022-11-05T08:20:35.349Z,98415.80
2022-11-05T08:23:01.773Z,98419.40
2022-11-05T08:25:28.837Z,98428.20
2022-11-05T08:28:05.776Z,98432.20
2022-11-05T08:30:33.111Z,98433.60
2022-11-05T08:33:04.394Z,98435.40
2022-11-05T08:35:31.112Z,98436.40
2022-11-05T08:38:02.614Z,98428.80
2022-11-05T08:40:32.772Z,98433.20
2022-11-05T08:43:02.557Z,98450.20
2022-11-05T08:45:30.361Z,98458.60
2022-11-05T08:48:08.807Z,98458.20
2022-11-05T08:50:37.273Z,98465.40
2022-11-05T08:53:05.437Z,98464.00
2022-11-05T08:55:32.703Z,98471.80
2022-11-05T08:58:02.038Z,98469.60
2022-11-05T09:00:32.026Z,98474.20
2022-11-05T09:03:00.983Z,98486.40
2022-11-05T09:05:30.334Z,98486.60
2022-11-05T09:08:00.778Z,98489.80
2022-11-05T09:10:28.503Z,98489.20
2022-11-05T09:12:55.119Z,98495.20
2022-11-05T09:15:23.264Z,98501.80
2022-11-05T09:17:50.292Z,98503.00
2022-11-05T09:20:16.680Z,98512.80
2022-11-05T09:22:44.378Z,98514.00
2022-11-05T09:25:11.310Z,98509.80
2022-11-05T09:27:37.927Z,98517.40
2022-11-05T09:30:05.409Z,98512.80
2022-11-05T09:32:32.636Z,98520.00
2022-11-05T09:35:02.566Z,98527.60
2022-11-05T09:37:29.610Z,98526.80
2022-11-05T09:39:56.361Z,98534.00
2022-11-05T09:42:31.497Z,98535.00
2022-11-05T09:45:20.553Z,98531.40
2022-11-05T09:47:55.516Z,98532.60
2022-11-05T09:50:34.566Z,98540.60
2022-11-05T09:53:02.142Z,98533.80
2022-11-05T09:55:43.334Z,98533.60
2022-11-05T09:58:25.902Z,98528.60
2022-11-05T10:00:58.698Z,98530.60
2022-11-05T10:03:29.923Z,98531.40
2022-11-05T10:06:09.311Z,98536.80
2022-11-05T10:08:43.879Z,98546.00
2022-11-05T10:11:20.891Z,98546.80
2022-11-05T10:13:56.188Z,98551.40
2022-11-05T10:16:32.324Z,98553.00
2022-11-05T10:19:09.756Z,98562.60
2022-11-05T10:22:04.928Z,98566.00
2022-11-05T10:24:24.272Z,98563.60
2022-11-05T10:26:54.299Z,98572.40
2022-11-05T10:29:32.393Z,98568.40
2022-11-05T10:32:03.425Z,98570.20
2022-11-05T10:34:34.598Z,98575.40
2022-11-05T10:37:01.189Z,98573.00
2022-11-05T10:39:30.635Z,98577.80
2022-11-05T10:42:25.608Z,98577.80
2022-11-05T10:45:08.899Z,98578.80
2022-11-05T10:48:12.992Z,98585.60
2022-11-05T10:50:39.964Z,98590.80
2022-11-05T10:53:22.203Z,98591.60
2022-11-05T10:55:51.903Z,98598.80
2022-11-05T10:58:28.956Z,98604.80
2022-11-05T11:00:55.550Z,98615.80
2022-11-05T11:03:47.979Z,98618.00
2022-11-05T11:06:23.704Z,98627.60
2022-11-05T11:08:52.576Z,98620.40
2022-11-05T11:11:37.021Z,98614.40
2022-11-05T11:14:22.056Z,98607.40
2022-11-05T11:16:51.585Z,98609.80
2022-11-05T11:19:28.332Z,98613.60
2022-11-05T11:22:03.849Z,98609.60
2022-11-05T11:24:38.236Z,98610.80
2022-11-05T11:27:11.263Z,98616.80
2022-11-05T11:29:48.184Z,98614.20
2022-11-05T11:32:20.441Z,98611.20
2022-11-05T11:34:54.212Z,98609.20
2022-11-05T11:37:29.942Z,98614.40
2022-11-05T11:40:15.111Z,98617.20
2022-11-05T11:42:52.318Z,98618.80
2022-11-05T11:45:27.742Z,98627.80
2022-11-05T11:47:57.119Z,98632.60
2022-11-05T11:50:45.264Z,98637.60
2022-11-05T11:53:20.553Z,98642.00
2022-11-05T11:56:00.014Z,98639.00
2022-11-05T11:58:43.555Z,98636.60
2022-11-05T12:01:37.595Z,98642.40
2022-11-05T12:04:27.778Z,98643.60
2022-11-05T12:07:38.211Z,98634.40
2022-11-05T12:10:42.256Z,98637.60
2022-11-05T12:13:21.335Z,98637.60
2022-11-05T12:16:05.586Z,98637.00
2022-11-05T12:18:59.687Z,98642.20
2022-11-05T12:21:52.593Z,98650.80
2022-11-05T12:24:37.075Z,98651.60
2022-11-05T12:27:26.186Z,98654.00
2022-11-05T12:30:07.918Z,98657.00
2022-11-05T12:33:05.295Z,98657.20
2022-11-05T12:35:57.989Z,98663.20
2022-11-05T12:39:04.372Z,98662.60
2022-11-05T12:42:02.666Z,98666.20
2022-11-05T12:45:46.986Z,98670.00
2022-11-05T12:48:46.428Z,98664.60
2022-11-05T12:51:48.423Z,98675.60
2022-11-05T12:54:27.050Z,98681.40
2022-11-05T12:56:59.225Z,98680.00
2022-11-05T12:59:57.917Z,98678.00
2022-11-05T13:03:15.348Z,98677.20
2022-11-05T13:05:54.445Z,98676.20
2022-11-05T13:08:29.791Z,98680.80
2022-11-05T13:11:01.838Z,98688.40
2022-11-05T13:13:39.761Z,98692.80
2022-11-05T13:16:16.618Z,98699.80
2022-11-05T13:18:50.801Z,98704.80
2022-11-05T13:21:24.053Z,98713.40
2022-11-05T13:24:03.350Z,98718.40
2022-11-05T13:26:43.356Z,98728.00
2022-11-05T13:29:37.641Z,98734.40
2022-11-05T13:32:36.132Z,98730.60
2022-11-05T13:35:07.875Z,98732.40
2022-11-05T13:38:00.370Z,98746.40
2022-11-05T13:41:06.296Z,98748.00
2022-11-05T13:44:21.846Z,98748.60
2022-11-05T13:47:23.802Z,98746.80
2022-11-05T13:50:30.828Z,98753.00
2022-11-05T13:53:34.604Z,98759.00
2022-11-05T13:56:34.203Z,98774.60
2022-11-05T13:59:30.178Z,98774.00
2022-11-05T14:02:10.476Z,98773.20
2022-11-05T14:04:42.071Z,98775.60
2022-11-05T14:07:17.759Z,98773.40
2022-11-05T14:09:45.017Z,98779.80
2022-11-05T14:12:23.865Z,98775.40
2022-11-05T14:14:59.119Z,98783.80
2022-11-05T14:17:49.288Z,98794.40
2022-11-05T14:20:32.338Z,98799.60
2022-11-05T14:23:17.727Z,98799.00
2022-11-05T14:25:44.059Z,98801.20
2022-11-05T14:28:35.252Z,98809.00
2022-11-05T14:32:08.373Z,98818.00
2022-11-05T14:34:54.124Z,98820.80
2022-11-05T14:37:33.370Z,98822.00
2022-11-05T14:40:44.220Z,98823.40
2022-11-05T14:43:26.891Z,98822.40
2022-11-05T14:46:03.265Z,98830.20
2022-11-05T14:48:52.049Z,98825.60
2022-11-05T14:51:35.620Z,98830.80
2022-11-05T14:54:19.200Z,98837.80
2022-11-05T14:56:57.508Z,98841.60
2022-11-05T14:59:23.890Z,98842.40
2022-11-05T15:01:54.707Z,98846.00
2022-11-05T15:04:33.626Z,98850.60
2022-11-05T15:07:02.972Z,98853.20
2022-11-05T15:09:38.179Z,98857.60
2022-11-05T15:12:19.483Z,98856.20
2022-11-05T15:14:59.340Z,98857.80
2022-11-05T15:17:40.784Z,98857.20
2022-11-05T15:20:10.934Z,98865.80
2022-11-05T15:22:52.521Z,98872.60
2022-11-05T15:25:30.595Z,98873.80
2022-11-05T15:28:29.377Z,98877.20
2022-11-05T15:31:06.083Z,98880.60
2022-11-05T15:33:33.294Z,98881.20
2022-11-05T15:36:29.611Z,98879.40
2022-11-05T15:39:27.466Z,98890.00
2022-11-05T15:41:44.914Z,98886.60
2022-11-05T15:44:30.500Z,98884.80
2022-11-05T15:47:19.435Z,98887.20
2022-11-05T15:49:50.649Z,98895.00
2022-11-05T15:52:21.673Z,98896.80
2022-11-05T15:55:11.872Z,98893.40
2022-11-05T15:57:51.006Z,98902.00
2022-11-05T16:00:25.105Z,98901.20
2022-11-05T16:02:59.278Z,98906.20
2022-11-05T16:05:30.717Z,98907.80
2022-11-05T16:08:04.452Z,98912.40
2022-11-05T16:10:36.999Z,98916.20
2022-11-05T16:13:36.997Z,98917.40
2022-11-05T16:16:34.075Z,98915.80
2022-11-05T16:19:00.780Z,98922.20
2022-11-05T16:21:27.684Z,98920.20
2022-11-05T16:23:58.585Z,98927.60
2022-11-05T16:27:01.981Z,98931.20
2022-11-05T16:29:35.089Z,98929.00
2022-11-05T16:32:06.952Z,98932.80
2022-11-05T16:34:41.408Z,98936.60
2022-11-05T16:37:14.852Z,98940.60
2022-11-05T16:39:41.354Z,98945.00
2022-11-05T16:42:33.711Z,98949.60
2022-11-05T16:45:00.130Z,98949.60
2022-11-05T16:47:26.553Z,98951.60
2022-11-05T16:49:53.305Z,98947.60
2022-11-05T16:52:19.938Z,98953.60
2022-11-05T16:54:46.504Z,98960.00
2022-11-05T16:57:28.190Z,98960.40
2022-11-05T16:59:56.932Z,98966.40
2022-11-05T17:02:23.397Z,98970.60
2022-11-05T17:04:50.132Z,98969.40
2022-11-05T17:07:16.579Z,98974.20
2022-11-05T17:09:43.398Z,98977.00
2022-11-05T17:12:11.627Z,98984.20
2022-11-05T17:14:38.200Z,98990.80
2022-11-05T17:17:06.100Z,98994.20
2022-11-05T17:19:33.392Z,98997.00
2022-11-05T17:21:59.844Z,98999.60
2022-11-05T17:24:26.277Z,99007.80
2022-11-05T17:26:52.778Z,99007.40
2022-11-05T17:29:19.200Z,99009.80
2022-11-05T17:31:45.614Z,99010.40
2022-11-05T17:34:12.060Z,99009.80
2022-11-05T17:36:38.653Z,99009.60
2022-11-05T17:39:05.076Z,99009.80
2022-11-05T17:41:31.590Z,99016.20
2022-11-05T17:43:58.206Z,99017.80
2022-11-05T17:46:25.556Z,99024.40
2022-11-05T17:48:52.163Z,99024.40
2022-11-05T17:51:19.954Z,99025.40
2022-11-05T17:53:49.024Z,99023.00
2022-11-05T17:56:30.582Z,99022.60
2022-11-05T17:59:01.796Z,99026.20
2022-11-05T18:01:35.727Z,99026.60
2022-11-05T18:04:08.577Z,99022.20
2022-11-05T18:06:40.924Z,99027.60
2022-11-05T18:09:09.228Z,99026.20
2022-11-05T18:11:37.274Z,99029.60
2022-11-05T18:14:04.491Z,99033.20
2022-11-05T18:16:31.317Z,99028.00
2022-11-05T18:18:57.753Z,99027.40
2022-11-05T18:21:24.308Z,99031.40
2022-11-05T18:23:50.969Z,99036.80
2022-11-05T18:26:18.213Z,99034.80
2022-11-05T18:28:45.463Z,99031.60
2022-11-05T18:31:18.631Z,99040.40
2022-11-05T18:33:45.381Z,99039.00
2022-11-05T18:36:25.193Z,99050.00
2022-11-05T18:38:52.306Z,99049.80
2022-11-05T18:41:20.223Z,99050.20
2022-11-05T18:43:47.381Z,99052.40
2022-11-05T18:46:43.123Z,99049.00
2022-11-05T18:49:02.528Z,99047.60
2022-11-05T18:51:28.968Z,99050.80
2022-11-05T18:53:56.271Z,99044.80
2022-11-05T18:56:23.172Z,99052.20
2022-11-05T18:58:50.596Z,99053.80
2022-11-05T19:01:26.479Z,99050.80
2022-11-05T19:03:58.001Z,99052.20
2022-11-05T19:06:27.615Z,99055.40
2022-11-05T19:08:56.227Z,99058.80
2022-11-05T19:11:25.975Z,99056.60
2022-11-05T19:13:52.588Z,99062.20
2022-11-05T19:16:23.520Z,99061.40
2022-11-05T19:18:50.335Z,99061.00
2022-11-05T19:21:23.488Z,99060.20
2022-11-05T19:23:51.897Z,99062.80
2022-11-05T19:26:28.603Z,99063.40
2022-11-05T19:28:59.294Z,99069.40
2022-11-05T19:31:27.077Z,99070.80
2022-11-05T19:33:54.343Z,99076.60
2022-11-05T19:36:23.131Z,99084.20
2022-11-05T19:38:57.350Z,99091.20
2022-11-05T19:41:25.115Z,99094.80
2022-11-05T19:43:54.333Z,99099.00
2022-11-05T19:46:22.992Z,99104.20
2022-11-05T19:48:51.001Z,99107.80
2022-11-05T19:51:21.592Z,99112.80
2022-11-05T19:53:48.972Z,99123.60
2022-11-05T19:56:20.181Z,99113.60
2022-11-05T19:58:47.293Z,99112.40
2022-11-05T20:01:15.957Z,99106.20
2022-11-05T20:03:42.935Z,99113.20
2022-11-05T20:06:14.492Z,99118.40
2022-11-05T20:09:06.676Z,99125.60
2022-11-05T20:11:29.169Z,99117.60
2022-11-05T20:13:56.803Z,99126.20
2022-11-05T20:16:36.767Z,99134.20
2022-11-05T20:19:07.601Z,99130.80
2022-11-05T20:21:35.346Z,99139.00
2022-11-05T20:24:02.603Z,99136.00
2022-11-05T20:26:29.469Z,99140.60
2022-11-05T20:28:56.267Z,99146.40
2022-11-05T20:31:23.089Z,99144.80
2022-11-05T20:33:49.621Z,99147.60
2022-11-05T20:36:22.222Z,99146.00
2022-11-05T20:38:50.917Z,99144.20
2022-11-05T20:41:18.327Z,99149.80
2022-11-05T20:43:46.793Z,99154.60
2022-11-05T20:46:16.415Z,99154.00
2022-11-05T20:48:43.948Z,99153.80
2022-11-05T20:51:15.192Z,99152.40
2022-11-05T20:53:42.056Z,99152.80
2022-11-05T20:56:09.358Z,99152.80
2022-11-05T20:58:37.697Z,99154.00
2022-11-05T21:01:05.589Z,99148.20
2022-11-05T21:03:32.486Z,99147.60
2022-11-05T21:06:01.335Z,99149.20
2022-11-05T21:08:28.644Z,99153.80
2022-11-05T21:10:56.358Z,99155.40
2022-11-05T21:13:24.201Z,99159.00
2022-11-05T21:15:53.722Z,99157.80
2022-11-05T21:18:23.378Z,99161.60
2022-11-05T21:20:51.138Z,99166.00
2022-11-05T21:23:18.501Z,99162.00
2022-11-05T21:25:45.557Z,99164.40
2022-11-05T21:28:14.850Z,99168.40
2022-11-05T21:30:49.080Z,99170.40
2022-11-05T21:33:18.544Z,99171.20
2022-11-05T21:35:47.915Z,99169.20
2022-11-05T21:38:17.517Z,99172.20
2022-11-05T21:40:45.393Z,99175.40
2022-11-05T21:43:13.658Z,99172.80
2022-11-05T21:45:43.723Z,99174.20
2022-11-05T21:48:11.591Z,99177.80
2022-11-05T21:50:57.979Z,99172.60
2022-11-05T21:53:43.075Z,99173.20
2022-11-05T21:56:41.626Z,99179.80
2022-11-05T21:59:36.208Z,99174.20
2022-11-05T22:02:03.641Z,99175.20
2022-11-05T22:04:36.835Z,99174.20
2022-11-05T22:07:05.210Z,99178.80
2022-11-05T22:09:32.547Z,99186.80
2022-11-05T22:12:00.563Z,99185.20
2022-11-05T22:14:28.108Z,99187.40
2022-11-05T22:16:55.736Z,99189.20
2022-11-05T22:19:23.195Z,99188.60
2022-11-05T22:21:49.932Z,99189.40
2022-11-05T22:24:17.595Z,99196.80
2022-11-05T22:26:44.946Z,99193.60
2022-11-05T22:29:12.922Z,99192.80
2022-11-05T22:31:39.512Z,99193.60
2022-11-05T22:34:07.077Z,99193.40
2022-11-05T22:36:35.059Z,99195.20
2022-11-05T22:39:02.055Z,99193.80
2022-11-05T22:41:28.991Z,99193.80
2022-11-05T22:43:55.797Z,99196.40
2022-11-05T22:46:25.222Z,99200.20
2022-11-05T22:48:53.080Z,99197.20
2022-11-05T22:51:24.570Z,99192.80
2022-11-05T22:53:52.024Z,99196.60
2022-11-05T22:56:22.497Z,99194.80
2022-11-05T22:58:50.792Z,99191.60
2022-11-05T23:01:18.728Z,99192.20
2022-11-05T23:03:47.509Z,99193.20
2022-11-05T23:06:39.383Z,99199.00
2022-11-05T23:09:31.752Z,99205.60
2022-11-05T23:11:58.680Z,99212.60
2022-11-05T23:14:25.809Z,99204.00
2022-11-05T23:17:11.138Z,99206.80
2022-11-05T23:19:56.449Z,99204.80
2022-11-05T23:22:45.898Z,99209.20
2022-11-05T23:25:19.766Z,99208.00
2022-11-05T23:27:50.826Z,99206.20
2022-11-05T23:30:26.457Z,99210.00
2022-11-05T23:32:53.431Z,99213.60
2022-11-05T23:35:39.962Z,99208.40
2022-11-05T23:38:25.377Z,99210.60
2022-11-05T23:41:10.810Z,99211.80
2022-11-05T23:43:55.633Z,99211.80
2022-11-05T23:46:40.542Z,99209.40
2022-11-05T23:49:07.048Z,99209.00
2022-11-05T23:51:33.445Z,99214.40
2022-11-05T23:53:59.847Z,99215.60
2022-11-05T23:56:26.298Z,99212.20
2022-11-05T23:58:52.739Z,99214.80
